createdAt,value
2023-05-10T00:12:41.805Z,7.83
2023-05-10T00:15:09.946Z,7.82
2023-05-10T00:17:36.910Z,7.86
2023-05-10T00:20:06.055Z,7.90
2023-05-10T00:22:33.482Z,7.90
2023-05-10T00:25:00.691Z,7.87
2023-05-10T00:27:27.662Z,7.82
2023-05-10T00:29:54.682Z,7.75
2023-05-10T00:32:22.012Z,7.70
2023-05-10T00:34:49.091Z,7.67
2023-05-10T00:37:16.033Z,7.64
2023-05-10T00:39:42.909Z,7.61
2023-05-10T00:42:09.816Z,7.59
2023-05-10T00:44:37.070Z,7.56
2023-05-10T00:47:04.117Z,7.53
2023-05-10T00:49:31.191Z,7.53
2023-05-10T00:51:58.214Z,7.52
2023-05-10T00:54:25.158Z,7.48
2023-05-10T00:56:52.919Z,7.45
2023-05-10T00:59:20.079Z,7.43
2023-05-10T01:01:47.494Z,7.40
2023-05-10T01:04:14.986Z,7.34
2023-05-10T01:06:42.960Z,7.27
2023-05-10T01:09:10.922Z,7.21
2023-05-10T01:11:39.422Z,7.15
2023-05-10T01:14:06.550Z,7.09
2023-05-10T01:16:34.862Z,7.05
2023-05-10T01:19:01.873Z,7.00
2023-05-10T01:21:55.194Z,6.94
2023-05-10T01:24:23.418Z,6.88
2023-05-10T01:27:02.747Z,6.80
2023-05-10T01:30:01.414Z,6.72
2023-05-10T01:32:44.882Z,6.64
2023-05-10T01:35:16.030Z,6.63
2023-05-10T01:37:43.059Z,6.62
2023-05-10T01:40:41.228Z,6.57
2023-05-10T01:43:11.970Z,6.47
2023-05-10T01:45:49.040Z,6.41
2023-05-10T01:48:16.088Z,6.34
2023-05-10T01:50:44.317Z,6.28
2023-05-10T01:53:12.335Z,6.22
2023-05-10T01:55:46.640Z,6.16
2023-05-10T01:58:20.385Z,6.09
2023-05-10T02:00:47.865Z,6.03
2023-05-10T02:03:14.998Z,5.98
2023-05-10T02:05:42.522Z,5.88
2023-05-10T02:08:09.464Z,5.75
2023-05-10T02:10:37.952Z,5.60
2023-05-10T02:13:05.224Z,5.47
2023-05-10T02:15:32.448Z,5.34
2023-05-10T02:17:59.723Z,5.22
2023-05-10T02:20:26.777Z,5.08
2023-05-10T02:22:55.072Z,4.98
2023-05-10T02:25:22.680Z,4.91
2023-05-10T02:27:49.625Z,4.83
2023-05-10T02:30:17.753Z,4.77
2023-05-10T02:32:45.081Z,4.73
2023-05-10T02:35:12.193Z,4.69
2023-05-10T02:37:39.158Z,4.66
2023-05-10T02:40:06.944Z,4.64
2023-05-10T02:42:36.219Z,4.64
2023-05-10T02:45:08.734Z,4.65
2023-05-10T02:47:36.252Z,4.68
2023-05-10T02:50:03.291Z,4.73
2023-05-10T02:52:38.262Z,4.77
2023-05-10T02:55:06.054Z,4.82
2023-05-10T02:57:34.895Z,4.87
2023-05-10T03:00:03.882Z,4.93
2023-05-10T03:02:32.124Z,4.97
2023-05-10T03:04:59.934Z,5.02
2023-05-10T03:07:27.362Z,5.07
2023-05-10T03:09:54.310Z,5.13
2023-05-10T03:12:30.980Z,5.22
2023-05-10T03:15:19.840Z,5.31
2023-05-10T03:17:55.931Z,5.41
2023-05-10T03:20:28.028Z,5.53
2023-05-10T03:22:57.671Z,5.65
2023-05-10T03:26:26.684Z,5.86
2023-05-10T03:28:58.218Z,6.03
2023-05-10T03:31:25.344Z,6.21
2023-05-10T03:33:53.301Z,6.40
2023-05-10T03:36:25.601Z,6.61
2023-05-10T03:38:52.961Z,6.79
2023-05-10T03:41:19.872Z,6.98
2023-05-10T03:43:47.362Z,7.19
2023-05-10T03:46:14.421Z,7.45
2023-05-10T03:48:41.678Z,7.76
2023-05-10T03:51:08.732Z,8.09
2023-05-10T03:53:35.868Z,8.37
2023-05-10T03:56:02.904Z,8.61
2023-05-10T03:58:29.952Z,8.83
2023-05-10T04:00:57.308Z,9.06
2023-05-10T04:03:24.726Z,9.34
2023-05-10T04:06:00.336Z,9.59
2023-05-10T04:08:27.571Z,9.77
2023-05-10T04:10:54.602Z,9.91
2023-05-10T04:13:22.461Z,10.05
2023-05-10T04:15:49.519Z,10.15
2023-05-10T04:18:16.460Z,10.20
2023-05-10T04:20:43.518Z,10.22
2023-05-10T04:23:10.557Z,10.27
2023-05-10T04:25:37.500Z,10.29
2023-05-10T04:28:04.794Z,10.24
2023-05-10T04:30:31.724Z,10.19
2023-05-10T04:32:59.372Z,10.13
2023-05-10T04:35:26.504Z,10.05
2023-05-10T04:37:53.446Z,10.03
2023-05-10T04:40:20.911Z,9.94
2023-05-10T04:42:47.850Z,9.85
2023-05-10T04:45:17.766Z,9.72
2023-05-10T04:47:44.730Z,9.55
2023-05-10T04:50:11.962Z,9.37
2023-05-10T04:52:38.904Z,9.22
2023-05-10T04:55:08.523Z,9.12
2023-05-10T04:57:35.459Z,9.00
2023-05-10T05:00:03.142Z,8.90
2023-05-10T05:02:30.301Z,8.84
2023-05-10T05:04:59.053Z,8.84
2023-05-10T05:07:26.512Z,8.81
2023-05-10T05:09:53.451Z,8.85
2023-05-10T05:12:20.610Z,8.94
2023-05-10T05:14:47.582Z,9.03
2023-05-10T05:17:14.499Z,9.12
2023-05-10T05:19:41.404Z,9.25
2023-05-10T05:22:09.318Z,9.39
2023-05-10T05:24:38.917Z,9.48
2023-05-10T05:27:05.956Z,9.59
2023-05-10T05:29:33.220Z,9.71
2023-05-10T05:32:00.358Z,9.85
2023-05-10T05:34:27.416Z,10.02
2023-05-10T05:36:55.065Z,10.23
2023-05-10T05:39:22.010Z,10.55
2023-05-10T05:41:48.952Z,10.96
2023-05-10T05:44:15.902Z,11.33
2023-05-10T05:46:42.843Z,11.68
2023-05-10T05:49:09.994Z,12.05
2023-05-10T05:51:36.933Z,12.39
2023-05-10T05:54:05.513Z,12.72
2023-05-10T05:56:32.496Z,12.99
2023-05-10T05:58:59.521Z,13.19
2023-05-10T06:01:26.477Z,13.36
2023-05-10T06:03:53.753Z,13.35
2023-05-10T06:06:21.065Z,13.30
2023-05-10T06:08:47.917Z,13.34
2023-05-10T06:11:14.774Z,13.50
2023-05-10T06:13:43.358Z,13.56
2023-05-10T06:16:10.302Z,13.56
2023-05-10T06:18:37.431Z,13.37
2023-05-10T06:21:04.773Z,13.19
2023-05-10T06:23:31.720Z,13.29
2023-05-10T06:25:58.579Z,13.30
2023-05-10T06:28:25.508Z,13.37
2023-05-10T06:30:52.520Z,13.49
2023-05-10T06:33:19.498Z,13.62
2023-05-10T06:35:46.461Z,13.72
2023-05-10T06:38:13.698Z,13.86
2023-05-10T06:40:44.015Z,13.98
2023-05-10T06:43:11.169Z,14.00
2023-05-10T06:45:38.115Z,14.08
2023-05-10T06:48:05.125Z,14.22
2023-05-10T06:50:32.045Z,14.38
2023-05-10T06:52:59.158Z,14.44
2023-05-10T06:55:26.646Z,14.31
2023-05-10T06:57:54.100Z,14.36
2023-05-10T07:00:21.417Z,14.48
2023-05-10T07:02:48.711Z,14.51
2023-05-10T07:05:16.594Z,14.33
2023-05-10T07:07:43.988Z,14.26
2023-05-10T07:10:11.146Z,14.16
2023-05-10T07:12:38.311Z,14.25
2023-05-10T07:15:06.360Z,14.26
2023-05-10T07:17:34.539Z,14.38
2023-05-10T07:20:02.001Z,14.64
2023-05-10T07:22:29.131Z,14.83
2023-05-10T07:24:56.084Z,14.73
2023-05-10T07:27:23.025Z,14.84
2023-05-10T07:29:50.070Z,15.12
2023-05-10T07:32:17.392Z,15.26
2023-05-10T07:34:44.580Z,15.42
2023-05-10T07:37:11.632Z,15.70
2023-05-10T07:39:38.673Z,15.98
2023-05-10T07:42:05.712Z,16.04
2023-05-10T07:44:32.666Z,16.04
2023-05-10T07:46:59.600Z,16.07
2023-05-10T07:49:27.104Z,16.09
2023-05-10T07:51:54.109Z,15.95
2023-05-10T07:54:21.059Z,15.67
2023-05-10T07:56:48.452Z,15.37
2023-05-10T07:59:18.527Z,15.33
2023-05-10T08:01:45.730Z,15.32
2023-05-10T08:04:12.983Z,15.38
2023-05-10T08:06:40.871Z,15.46
2023-05-10T08:09:08.042Z,15.54
2023-05-10T08:11:35.298Z,15.73
2023-05-10T08:14:02.367Z,15.94
2023-05-10T08:16:30.100Z,16.14
2023-05-10T08:18:57.178Z,16.39
2023-05-10T08:21:24.205Z,16.56
2023-05-10T08:23:51.156Z,16.56
2023-05-10T08:26:18.185Z,16.61
2023-05-10T08:28:45.448Z,16.82
2023-05-10T08:31:12.392Z,17.14
2023-05-10T08:33:41.525Z,17.24
2023-05-10T08:36:09.648Z,17.34
2023-05-10T08:38:37.356Z,17.24
2023-05-10T08:41:04.970Z,16.94
2023-05-10T08:43:32.443Z,16.63
2023-05-10T08:46:01.821Z,16.25
2023-05-10T08:48:28.778Z,16.00
2023-05-10T08:50:56.337Z,15.89
2023-05-10T08:53:23.726Z,15.92
2023-05-10T08:55:50.737Z,15.97
2023-05-10T08:58:18.313Z,15.92
2023-05-10T09:00:45.320Z,15.96
2023-05-10T09:03:12.392Z,16.12
2023-05-10T09:05:39.435Z,16.19
2023-05-10T09:08:07.304Z,16.05
2023-05-10T09:10:34.250Z,15.90
2023-05-10T09:13:01.305Z,15.72
2023-05-10T09:15:28.345Z,15.53
2023-05-10T09:17:55.933Z,15.45
2023-05-10T09:20:23.783Z,15.42
2023-05-10T09:22:50.749Z,15.38
2023-05-10T09:25:18.221Z,15.39
2023-05-10T09:27:46.321Z,15.44
2023-05-10T09:30:17.902Z,15.49
2023-05-10T09:32:46.572Z,15.53
2023-05-10T09:35:22.014Z,15.67
2023-05-10T09:37:50.727Z,15.75
2023-05-10T09:40:24.819Z,15.89
2023-05-10T09:43:02.572Z,16.05
2023-05-10T09:45:31.261Z,16.25
2023-05-10T09:47:58.534Z,16.37
2023-05-10T09:50:26.316Z,16.42
2023-05-10T09:53:00.229Z,16.47
2023-05-10T09:55:46.121Z,16.60
2023-05-10T09:58:16.370Z,16.79
2023-05-10T10:00:44.624Z,17.00
2023-05-10T10:03:16.389Z,17.15
2023-05-10T10:05:44.668Z,17.28
2023-05-10T10:08:12.306Z,17.13
2023-05-10T10:10:41.573Z,16.68
2023-05-10T10:13:08.974Z,15.76
2023-05-10T10:15:36.188Z,14.99
2023-05-10T10:18:05.311Z,14.38
2023-05-10T10:20:32.465Z,13.86
2023-05-10T10:22:59.396Z,13.53
2023-05-10T10:25:26.642Z,13.42
2023-05-10T10:27:53.628Z,13.41
2023-05-10T10:30:37.546Z,13.30
2023-05-10T10:33:10.419Z,13.17
2023-05-10T10:35:41.280Z,13.20
2023-05-10T10:38:09.326Z,13.27
2023-05-10T10:40:36.372Z,13.45
2023-05-10T10:43:36.198Z,13.73
2023-05-10T10:46:16.609Z,14.00
2023-05-10T10:48:55.090Z,14.09
2023-05-10T10:51:22.108Z,14.11
2023-05-10T10:53:49.060Z,14.07
2023-05-10T10:56:16.716Z,13.90
2023-05-10T10:58:52.492Z,13.79
2023-05-10T11:01:19.605Z,13.66
2023-05-10T11:04:18.616Z,13.46
2023-05-10T11:06:45.775Z,13.37
2023-05-10T11:09:13.568Z,13.40
2023-05-10T11:11:52.180Z,13.39
2023-05-10T11:14:21.461Z,13.38
2023-05-10T11:16:48.538Z,13.40
2023-05-10T11:19:17.660Z,13.44
2023-05-10T11:22:06.771Z,13.43
2023-05-10T11:24:35.019Z,13.47
2023-05-10T11:27:02.192Z,13.56
2023-05-10T11:29:29.268Z,13.63
2023-05-10T11:31:58.822Z,13.73
2023-05-10T11:34:36.440Z,13.77
2023-05-10T11:37:03.605Z,13.81
2023-05-10T11:39:31.957Z,13.82
2023-05-10T11:41:59.100Z,13.77
2023-05-10T11:44:33.021Z,13.80
2023-05-10T11:47:01.592Z,13.76
2023-05-10T11:49:28.639Z,13.65
2023-05-10T11:52:05.512Z,13.52
2023-05-10T11:54:32.462Z,13.36
2023-05-10T11:56:59.501Z,13.36
2023-05-10T11:59:26.444Z,13.41
2023-05-10T12:01:53.387Z,13.52
2023-05-10T12:04:20.496Z,13.62
2023-05-10T12:06:47.911Z,13.60
2023-05-10T12:09:15.464Z,13.57
2023-05-10T12:11:44.326Z,13.64
2023-05-10T12:14:12.012Z,13.73
2023-05-10T12:16:39.004Z,13.75
2023-05-10T12:19:06.768Z,13.80
2023-05-10T12:21:33.755Z,13.81
2023-05-10T12:24:04.907Z,13.85
2023-05-10T12:26:32.285Z,13.93
2023-05-10T12:29:20.193Z,14.02
2023-05-10T12:31:55.079Z,14.15
2023-05-10T12:34:26.912Z,14.20
2023-05-10T12:36:54.677Z,14.28
2023-05-10T12:39:21.733Z,14.41
2023-05-10T12:41:48.850Z,14.58
2023-05-10T12:44:16.105Z,14.80
2023-05-10T12:46:43.040Z,14.80
2023-05-10T12:49:10.129Z,14.88
2023-05-10T12:51:37.448Z,15.26
2023-05-10T12:54:04.822Z,15.78
2023-05-10T12:56:31.741Z,16.19
2023-05-10T12:58:58.887Z,16.56
2023-05-10T13:01:26.207Z,16.90
2023-05-10T13:03:53.297Z,17.19
2023-05-10T13:06:20.335Z,17.12
2023-05-10T13:08:47.889Z,16.99
2023-05-10T13:11:18.110Z,16.91
2023-05-10T13:13:45.887Z,16.82
2023-05-10T13:16:12.928Z,16.68
2023-05-10T13:18:40.188Z,16.49
2023-05-10T13:21:08.667Z,16.49
2023-05-10T13:23:36.011Z,16.46
2023-05-10T13:26:03.055Z,16.36
2023-05-10T13:28:30.718Z,16.18
2023-05-10T13:30:57.834Z,16.16
2023-05-10T13:33:24.949Z,16.08
2023-05-10T13:35:53.703Z,15.86
2023-05-10T13:38:22.536Z,15.87
2023-05-10T13:40:54.015Z,15.94
2023-05-10T13:43:21.402Z,16.17
2023-05-10T13:45:48.449Z,16.20
2023-05-10T13:48:15.586Z,15.97
2023-05-10T13:50:42.845Z,15.94
2023-05-10T13:53:09.811Z,15.86
2023-05-10T13:55:37.041Z,15.94
2023-05-10T13:58:03.992Z,15.97
2023-05-10T14:00:31.136Z,16.07
2023-05-10T14:02:58.235Z,16.32
2023-05-10T14:05:26.298Z,16.63
2023-05-10T14:07:53.824Z,16.94
2023-05-10T14:10:21.293Z,17.20
2023-05-10T14:12:48.323Z,17.22
2023-05-10T14:15:15.473Z,17.20
2023-05-10T14:17:42.959Z,17.33
2023-05-10T14:20:10.577Z,17.63
2023-05-10T14:22:37.531Z,17.98
2023-05-10T14:25:05.088Z,18.16
2023-05-10T14:27:33.539Z,18.13
2023-05-10T14:30:00.531Z,18.21
2023-05-10T14:32:28.622Z,18.04
2023-05-10T14:34:55.830Z,18.27
2023-05-10T14:37:22.880Z,18.58
2023-05-10T14:39:49.920Z,18.72
2023-05-10T14:42:16.867Z,18.64
2023-05-10T14:44:43.815Z,18.79
2023-05-10T14:47:12.049Z,19.05
2023-05-10T14:49:39.537Z,19.08
2023-05-10T14:52:06.489Z,19.23
2023-05-10T14:54:34.661Z,19.34
2023-05-10T14:57:01.907Z,19.14
2023-05-10T14:59:29.068Z,18.71
2023-05-10T15:01:56.819Z,18.31
2023-05-10T15:04:26.006Z,17.91
2023-05-10T15:07:00.363Z,17.56
2023-05-10T15:09:28.859Z,17.23
2023-05-10T15:11:56.499Z,16.90
2023-05-10T15:14:24.148Z,16.72
2023-05-10T15:16:51.190Z,16.54
2023-05-10T15:19:18.241Z,16.33
2023-05-10T15:21:45.790Z,16.10
2023-05-10T15:24:12.742Z,15.86
2023-05-10T15:26:39.678Z,15.78
2023-05-10T15:29:07.247Z,15.84
2023-05-10T15:31:36.915Z,15.71
2023-05-10T15:34:04.105Z,15.47
2023-05-10T15:36:32.478Z,15.12
2023-05-10T15:38:59.416Z,14.88
2023-05-10T15:44:25.465Z,14.49
2023-05-10T15:46:53.112Z,14.26
2023-05-10T15:49:20.375Z,14.06
2023-05-10T15:51:47.319Z,13.93
2023-05-10T15:54:14.360Z,13.79
2023-05-10T15:56:41.613Z,13.67
2023-05-10T15:59:10.837Z,13.58
2023-05-10T16:01:38.271Z,13.46
2023-05-10T16:04:05.728Z,13.38
2023-05-10T16:06:32.985Z,13.28
2023-05-10T16:08:59.926Z,13.21
2023-05-10T16:11:27.494Z,13.19
2023-05-10T16:13:54.734Z,13.26
2023-05-10T16:16:21.916Z,13.39
2023-05-10T16:18:49.125Z,13.44
2023-05-10T16:21:16.699Z,13.42
2023-05-10T16:23:46.656Z,13.36
2023-05-10T16:26:14.480Z,13.27
2023-05-10T16:28:41.637Z,13.16
2023-05-10T16:31:08.691Z,13.10
2023-05-10T16:33:37.153Z,13.13
2023-05-10T16:36:06.522Z,13.19
2023-05-10T16:38:33.608Z,13.16
2023-05-10T16:41:03.728Z,13.03
2023-05-10T16:43:32.548Z,12.90
2023-05-10T16:45:59.525Z,12.72
2023-05-10T16:48:27.109Z,12.53
2023-05-10T16:50:54.055Z,12.32
2023-05-10T16:53:21.004Z,12.11
2023-05-10T16:55:48.083Z,11.88
2023-05-10T16:58:15.245Z,11.64
2023-05-10T17:00:43.167Z,11.39
2023-05-10T17:03:10.313Z,11.14
2023-05-10T17:05:37.465Z,10.88
2023-05-10T17:08:04.566Z,10.66
2023-05-10T17:10:31.667Z,10.43
2023-05-10T17:12:58.599Z,10.20
2023-05-10T17:15:25.586Z,9.97
2023-05-10T17:17:52.658Z,9.77
2023-05-10T17:20:20.061Z,9.55
2023-05-10T17:22:47.098Z,9.34
2023-05-10T17:25:14.188Z,9.13
2023-05-10T17:27:41.601Z,8.92
2023-05-10T17:30:09.374Z,8.72
2023-05-10T17:32:36.541Z,8.54
2023-05-10T17:35:05.342Z,8.36
2023-05-10T17:37:35.721Z,8.19
2023-05-10T17:40:04.113Z,8.03
2023-05-10T17:42:31.362Z,7.88
2023-05-10T17:44:58.405Z,7.71
2023-05-10T17:47:25.480Z,7.57
2023-05-10T17:49:52.596Z,7.42
2023-05-10T17:52:19.653Z,7.27
2023-05-10T17:54:47.408Z,7.13
2023-05-10T17:57:14.357Z,7.03
2023-05-10T17:59:41.293Z,6.93
2023-05-10T18:02:08.238Z,6.85
2023-05-10T18:04:35.468Z,6.77
2023-05-10T18:07:03.153Z,6.70
2023-05-10T18:09:30.191Z,6.63
2023-05-10T18:11:57.347Z,6.56
2023-05-10T18:14:38.838Z,6.52
2023-05-10T18:17:08.126Z,6.49
2023-05-10T18:19:35.377Z,6.43
2023-05-10T18:22:02.325Z,6.39
2023-05-10T18:24:38.246Z,6.33
2023-05-10T18:27:08.622Z,6.27
2023-05-10T18:29:36.583Z,6.24
2023-05-10T18:32:03.720Z,6.24
2023-05-10T18:34:30.773Z,6.21
2023-05-10T18:36:57.849Z,6.20
2023-05-10T18:39:25.171Z,6.17
2023-05-10T18:41:52.211Z,6.11
2023-05-10T18:44:19.366Z,6.07
2023-05-10T18:46:46.535Z,6.03
2023-05-10T18:49:13.833Z,5.98
2023-05-10T18:51:40.815Z,5.92
2023-05-10T18:54:07.963Z,5.84
2023-05-10T18:56:34.908Z,5.78
2023-05-10T18:59:01.962Z,5.69
2023-05-10T19:01:29.051Z,5.61
2023-05-10T19:03:56.561Z,5.55
2023-05-10T19:06:23.619Z,5.49
2023-05-10T19:08:50.786Z,5.44
2023-05-10T19:11:17.807Z,5.44
2023-05-10T19:13:45.593Z,5.45
2023-05-10T19:16:16.171Z,5.46
2023-05-10T19:18:45.035Z,5.55
2023-05-10T19:21:12.344Z,5.62
2023-05-10T19:23:40.796Z,5.61
2023-05-10T19:26:11.014Z,5.67
2023-05-10T19:28:38.190Z,5.76
2023-05-10T19:31:06.354Z,5.86
2023-05-10T19:33:33.518Z,5.97
2023-05-10T19:36:00.757Z,6.07
2023-05-10T19:38:27.819Z,6.15
2023-05-10T19:40:58.425Z,6.24
2023-05-10T19:43:31.287Z,6.29
2023-05-10T19:46:00.519Z,6.38
2023-05-10T19:48:27.473Z,6.43
2023-05-10T19:50:54.818Z,6.39
2023-05-10T19:53:21.694Z,6.39
2023-05-10T19:55:48.714Z,6.37
2023-05-10T19:58:15.755Z,6.30
2023-05-10T20:00:42.857Z,6.25
2023-05-10T20:03:09.998Z,6.16
2023-05-10T20:05:36.997Z,6.07
2023-05-10T20:08:03.940Z,5.97
2023-05-10T20:10:31.092Z,5.88
2023-05-10T20:12:58.971Z,5.78
2023-05-10T20:15:26.106Z,5.70
2023-05-10T20:17:53.949Z,5.62
2023-05-10T20:20:21.429Z,5.53
2023-05-10T20:22:48.594Z,5.41
2023-05-10T20:25:16.033Z,5.30
2023-05-10T20:27:42.924Z,5.17
2023-05-10T20:30:10.542Z,5.05
2023-05-10T20:32:37.559Z,5.00
2023-05-10T20:35:05.444Z,5.07
2023-05-10T20:37:32.390Z,5.12
2023-05-10T20:39:59.318Z,5.16
2023-05-10T20:42:26.591Z,5.24
2023-05-10T20:44:53.540Z,5.35
2023-05-10T20:47:20.630Z,5.41
2023-05-10T20:49:47.626Z,5.46
2023-05-10T20:52:14.565Z,5.47
2023-05-10T20:54:41.626Z,5.43
2023-05-10T20:57:08.555Z,5.36
2023-05-10T20:59:35.425Z,5.32
2023-05-10T21:02:02.403Z,5.29
2023-05-10T21:04:29.434Z,5.23
2023-05-10T21:06:57.155Z,5.18
2023-05-10T21:09:30.965Z,5.13
2023-05-10T21:11:58.416Z,5.06
2023-05-10T21:14:25.363Z,5.00
2023-05-10T21:16:52.512Z,4.95
2023-05-10T21:19:19.454Z,4.89
2023-05-10T21:21:46.604Z,4.82
2023-05-10T21:24:13.880Z,4.75
2023-05-10T21:26:42.238Z,4.69
2023-05-10T21:29:09.291Z,4.63
2023-05-10T21:32:33.014Z,4.61
2023-05-10T21:36:16.238Z,4.68
2023-05-10T21:39:02.203Z,4.71
2023-05-10T21:41:29.228Z,4.76
2023-05-10T21:43:56.688Z,4.80
2023-05-10T21:46:23.749Z,4.83
2023-05-10T21:48:50.741Z,4.91
2023-05-10T21:51:18.136Z,5.00
2023-05-10T21:53:45.090Z,5.09
2023-05-10T21:56:12.327Z,5.22
2023-05-10T21:58:39.273Z,5.30
2023-05-10T22:01:25.029Z,5.38
2023-05-10T22:03:52.109Z,5.48
2023-05-10T22:06:19.048Z,5.59
2023-05-10T22:08:46.006Z,5.72
2023-05-10T22:11:13.148Z,5.87
2023-05-10T22:13:40.092Z,5.96
2023-05-10T22:16:07.054Z,6.03
2023-05-10T22:18:34.020Z,6.09
2023-05-10T22:21:01.331Z,6.10
2023-05-10T22:23:28.275Z,6.12
2023-05-10T22:26:52.275Z,6.22
2023-05-10T22:29:19.408Z,6.31
2023-05-10T22:31:46.469Z,6.37
2023-05-10T22:34:14.217Z,6.40
2023-05-10T22:36:41.155Z,6.42
2023-05-10T22:39:08.621Z,6.45
2023-05-10T22:41:35.587Z,6.54
2023-05-10T22:44:05.138Z,6.58
2023-05-10T22:46:32.705Z,6.59
2023-05-10T22:49:00.693Z,6.61
2023-05-10T22:51:27.851Z,6.60
2023-05-10T22:53:54.792Z,6.60
2023-05-10T22:56:22.347Z,6.62
2023-05-10T22:58:49.711Z,6.61
2023-05-10T23:01:17.291Z,6.61
2023-05-10T23:03:44.306Z,6.61
2023-05-10T23:06:11.248Z,6.60
2023-05-10T23:08:38.197Z,6.59
2023-05-10T23:11:05.346Z,6.57
2023-05-10T23:13:32.289Z,6.54
2023-05-10T23:16:05.344Z,6.52
2023-05-10T23:18:32.537Z,6.49
2023-05-10T23:20:59.437Z,6.49
2023-05-10T23:23:26.431Z,6.52
2023-05-10T23:25:53.358Z,6.56
2023-05-10T23:28:20.209Z,6.56
2023-05-10T23:30:47.144Z,6.54
2023-05-10T23:33:14.519Z,6.48
2023-05-10T23:35:41.447Z,6.41
2023-05-10T23:38:08.395Z,6.35
2023-05-10T23:40:35.572Z,6.31
2023-05-10T23:43:02.693Z,6.27
2023-05-10T23:45:29.676Z,6.22
2023-05-10T23:47:56.722Z,6.17
2023-05-10T23:50:23.629Z,6.12
2023-05-10T23:52:50.485Z,6.09
2023-05-10T23:55:17.537Z,6.04
2023-05-10T23:57:44.460Z,6.00
